Time;durP1;ratioP1;P1;durP2;ratioP2;P2;SDS_P1;SDS_P2;PMS_P1;PMS_P2;Temp;Humidity;BMP_temperature;BMP_pressure;BME280_temperature;BME280_humidity;BME280_pressure;Samples;Min_cycle;Max_cycle;Signal;HPM_P1;HPM_P2
2023/12/18 00:00:38;;;;;;;23.07;13.60;;;5.00;99.90;;;;;;5093300;28;20310;-69
2023/12/18 00:03:04;;;;;;;22.67;13.63;;;4.90;99.90;;;;;;5093404;28;20171;-68
2023/12/18 00:05:29;;;;;;;23.47;14.27;;;4.90;99.90;;;;;;5075405;28;20176;-68
2023/12/18 00:07:55;;;;;;;20.40;13.93;;;4.90;99.90;;;;;;5093491;28;20159;-69
2023/12/18 00:10:20;;;;;;;21.13;13.33;;;4.90;99.90;;;;;;5093158;28;20202;-69
2023/12/18 00:12:46;;;;;;;22.13;13.77;;;4.80;99.90;;;;;;5093081;28;20168;-68
2023/12/18 00:15:12;;;;;;;22.80;13.80;;;4.90;99.90;;;;;;5093220;28;20518;-69
2023/12/18 00:17:37;;;;;;;20.17;12.77;;;4.90;99.90;;;;;;5093411;28;20701;-69
2023/12/18 00:20:04;;;;;;;20.73;13.97;;;4.90;99.90;;;;;;5093432;28;20535;-68
2023/12/18 00:22:29;;;;;;;25.03;14.10;;;4.90;99.90;;;;;;5075208;28;20197;-68
2023/12/18 00:24:55;;;;;;;21.13;13.67;;;4.90;99.90;;;;;;5093126;28;20626;-69
2023/12/18 00:27:20;;;;;;;21.47;14.03;;;4.90;99.90;;;;;;5092748;28;20223;-68
2023/12/18 00:29:46;;;;;;;22.20;14.73;;;4.90;99.90;;;;;;5092987;28;20195;-69
2023/12/18 00:32:11;;;;;;;25.83;14.53;;;4.90;99.90;;;;;;5093381;28;20212;-68
2023/12/18 00:34:40;;;;;;;19.03;13.07;;;4.90;99.90;;;;;;5075124;28;20174;-69
2023/12/18 00:37:06;;;;;;;25.60;14.30;;;4.80;99.90;;;;;;5093338;28;20630;-67
2023/12/18 00:39:32;;;;;;;21.87;13.90;;;4.70;99.90;;;;;;5093063;28;20183;-69
2023/12/18 00:41:57;;;;;;;24.10;13.97;;;4.70;99.90;;;;;;5092720;28;20182;-68
2023/12/18 00:44:23;;;;;;;21.23;13.67;;;4.70;99.90;;;;;;5074873;28;20611;-68
2023/12/18 00:46:49;;;;;;;22.87;14.30;;;4.70;99.90;;;;;;5094171;28;20171;-68
2023/12/18 00:49:15;;;;;;;23.30;14.53;;;4.70;99.90;;;;;;5079082;28;20317;-68
2023/12/18 00:51:40;;;;;;;22.63;14.70;;;4.60;99.90;;;;;;5096971;28;20215;-67
2023/12/18 00:54:06;;;;;;;24.47;14.13;;;4.60;99.90;;;;;;5096859;28;20172;-68
2023/12/18 00:56:32;;;;;;;24.77;14.60;;;4.60;99.90;;;;;;5096602;28;20176;-68
2023/12/18 00:58:57;;;;;;;19.87;14.20;;;4.60;99.90;;;;;;5096625;28;20172;-67
2023/12/18 01:01:23;;;;;;;22.33;14.23;;;4.60;99.90;;;;;;5096853;28;20237;-69
2023/12/18 01:03:49;;;;;;;19.17;13.57;;;4.70;99.90;;;;;;5096973;28;20187;-67
2023/12/18 01:06:14;;;;;;;19.43;13.67;;;4.70;99.90;;;;;;5096746;28;20592;-68
2023/12/18 01:08:40;;;;;;;22.53;15.07;;;4.80;99.90;;;;;;5096683;28;20176;-68
2023/12/18 01:11:05;;;;;;;23.67;14.80;;;4.80;99.90;;;;;;5096319;28;20203;-68
2023/12/18 01:13:31;;;;;;;21.17;14.27;;;4.70;99.90;;;;;;5096302;28;20585;-69
2023/12/18 01:15:58;;;;;;;24.40;14.13;;;4.80;99.90;;;;;;5078408;28;20176;-68
2023/12/18 01:18:24;;;;;;;19.67;14.27;;;4.80;99.90;;;;;;5096431;28;20240;-68
2023/12/18 01:20:49;;;;;;;23.53;14.33;;;4.80;99.90;;;;;;5096475;28;20267;-68
2023/12/18 01:23:15;;;;;;;20.93;14.17;;;4.80;99.90;;;;;;5096569;28;20176;-68
2023/12/18 01:25:41;;;;;;;19.43;14.53;;;4.80;99.90;;;;;;5096064;28;20175;-68
2023/12/18 01:28:07;;;;;;;20.73;14.17;;;4.90;99.90;;;;;;5095909;28;20224;-68
2023/12/18 01:30:32;;;;;;;20.17;13.97;;;4.90;99.90;;;;;;5096399;28;20638;-67
2023/12/18 01:32:58;;;;;;;20.97;14.43;;;4.90;99.90;;;;;;5096252;28;20619;-68
2023/12/18 01:35:23;;;;;;;18.97;14.00;;;4.90;99.90;;;;;;5096420;28;20208;-67
2023/12/18 01:37:50;;;;;;;21.73;13.90;;;5.00;99.90;;;;;;5078075;28;20233;-68
2023/12/18 01:40:16;;;;;;;17.57;13.30;;;5.10;99.90;;;;;;5096148;28;20164;-68
2023/12/18 01:42:44;;;;;;;18.53;12.90;;;5.10;99.90;;;;;;5096070;28;20275;-68
2023/12/18 01:45:10;;;;;;;19.77;13.77;;;5.10;99.90;;;;;;5095864;28;20260;-68
2023/12/18 01:47:36;;;;;;;18.77;13.67;;;5.20;99.90;;;;;;5096217;28;20208;-68
2023/12/18 01:50:03;;;;;;;21.77;13.30;;;5.30;99.90;;;;;;5095908;28;20210;-68
2023/12/18 01:52:29;;;;;;;19.40;13.27;;;5.40;99.90;;;;;;5095700;28;20546;-68
2023/12/18 01:54:56;;;;;;;19.40;13.63;;;5.40;99.90;;;;;;5096009;28;20229;-69
2023/12/18 01:57:23;;;;;;;18.93;12.97;;;5.50;99.90;;;;;;5095714;28;20178;-69
2023/12/18 01:59:50;;;;;;;21.23;13.47;;;5.50;99.90;;;;;;5095619;28;20172;-69
2023/12/18 02:02:16;;;;;;;20.20;13.57;;;5.50;99.90;;;;;;5077776;28;20183;-68
2023/12/18 02:04:42;;;;;;;19.33;13.93;;;5.50;99.90;;;;;;5095687;28;20218;-68
2023/12/18 02:07:09;;;;;;;19.77;13.03;;;5.50;99.90;;;;;;5077157;28;20191;-68
2023/12/18 02:09:35;;;;;;;20.03;13.67;;;5.50;99.90;;;;;;5095607;28;20646;-67
2023/12/18 02:12:01;;;;;;;27.40;14.50;;;5.40;99.90;;;;;;5095486;28;20253;-68
2023/12/18 02:14:27;;;;;;;23.10;14.37;;;5.50;99.90;;;;;;5095372;28;20266;-68
2023/12/18 02:16:52;;;;;;;19.57;13.77;;;5.50;99.90;;;;;;5095303;28;20657;-70
2023/12/18 02:19:23;;;;;;;20.73;14.00;;;5.50;99.90;;;;;;5095411;28;20172;-69
2023/12/18 02:21:48;;;;;;;20.03;13.43;;;5.50;99.90;;;;;;5095071;28;20184;-69
2023/12/18 02:24:14;;;;;;;21.80;14.27;;;5.50;99.90;;;;;;5095156;28;20167;-68
2023/12/18 02:26:40;;;;;;;21.07;14.27;;;5.50;99.90;;;;;;5094871;28;20557;-68
2023/12/18 02:29:05;;;;;;;19.30;13.57;;;5.50;99.90;;;;;;5095325;28;20168;-69
2023/12/18 02:31:31;;;;;;;23.90;14.63;;;5.40;99.90;;;;;;5094990;28;20204;-68
2023/12/18 02:33:56;;;;;;;19.47;13.47;;;5.40;99.90;;;;;;5095163;28;20172;-68
2023/12/18 02:36:22;;;;;;;19.23;13.83;;;5.40;99.90;;;;;;5094775;28;20168;-68
2023/12/18 02:38:47;;;;;;;19.57;14.00;;;5.30;99.90;;;;;;5094741;28;20168;-68
2023/12/18 02:41:13;;;;;;;23.10;15.17;;;5.40;99.90;;;;;;5095094;28;20203;-68
2023/12/18 02:43:39;;;;;;;19.70;14.77;;;5.40;99.90;;;;;;5095017;28;20639;-68
2023/12/18 02:46:04;;;;;;;21.07;14.63;;;5.40;99.90;;;;;;5094725;28;20172;-68
2023/12/18 02:48:30;;;;;;;22.67;14.20;;;5.50;99.90;;;;;;5094783;28;20195;-68
2023/12/18 02:50:55;;;;;;;25.80;15.53;;;5.50;99.90;;;;;;5094289;28;20204;-68
2023/12/18 02:53:21;;;;;;;24.93;15.30;;;5.40;99.90;;;;;;5094699;28;20649;-68
2023/12/18 02:55:46;;;;;;;23.87;14.27;;;5.40;99.90;;;;;;5094635;28;20753;-68
2023/12/18 02:58:12;;;;;;;27.27;16.23;;;5.40;99.90;;;;;;5094520;28;20532;-68
2023/12/18 03:00:38;;;;;;;25.17;15.80;;;5.30;99.90;;;;;;5094552;28;20176;-68
2023/12/18 03:03:03;;;;;;;24.97;16.23;;;5.30;99.90;;;;;;5094353;28;20172;-68
2023/12/18 03:05:29;;;;;;;26.10;16.67;;;5.30;99.90;;;;;;5094366;28;20171;-68
2023/12/18 03:07:54;;;;;;;24.00;16.87;;;5.40;99.90;;;;;;5094397;28;20686;-68
2023/12/18 03:10:20;;;;;;;29.07;17.83;;;5.40;99.90;;;;;;5093731;28;20211;-68
2023/12/18 03:12:46;;;;;;;28.97;17.73;;;5.40;99.90;;;;;;5094502;28;20180;-68
2023/12/18 03:15:11;;;;;;;31.90;17.83;;;5.40;99.90;;;;;;5094258;28;20168;-68
2023/12/18 03:17:37;;;;;;;34.00;18.40;;;5.40;99.90;;;;;;5075846;28;20191;-68
2023/12/18 03:20:03;;;;;;;29.23;17.77;;;5.40;99.90;;;;;;5094242;28;20172;-68
2023/12/18 03:22:28;;;;;;;31.87;18.77;;;5.40;99.90;;;;;;5076035;28;20175;-68
2023/12/18 03:24:54;;;;;;;31.13;19.10;;;5.40;99.90;;;;;;5093978;28;20172;-68
2023/12/18 03:27:19;;;;;;;31.90;19.13;;;5.40;99.90;;;;;;5093659;28;20215;-68
2023/12/18 03:29:45;;;;;;;29.47;18.23;;;5.40;99.90;;;;;;5094114;28;20167;-68
2023/12/18 03:32:10;;;;;;;33.80;19.83;;;5.50;99.90;;;;;;5093916;28;20215;-68
2023/12/18 03:34:36;;;;;;;30.70;19.17;;;5.60;99.90;;;;;;5093490;28;20179;-68
2023/12/18 03:37:02;;;;;;;34.43;19.17;;;5.60;99.90;;;;;;5093890;28;20172;-68
2023/12/18 03:39:27;;;;;;;38.27;20.33;;;5.60;99.90;;;;;;5093674;28;20176;-68
2023/12/18 03:41:53;;;;;;;37.83;19.57;;;5.60;99.90;;;;;;5094222;28;20184;-68
2023/12/18 03:44:18;;;;;;;35.97;19.20;;;5.60;99.90;;;;;;5093969;28;20631;-68
2023/12/18 03:46:44;;;;;;;38.27;19.73;;;5.50;99.90;;;;;;5093617;28;20183;-68
2023/12/18 03:49:09;;;;;;;35.43;19.97;;;5.60;99.90;;;;;;5093263;28;20176;-68
2023/12/18 03:51:35;;;;;;;34.60;20.00;;;5.60;99.90;;;;;;5093409;28;20234;-68
2023/12/18 03:54:01;;;;;;;38.80;19.93;;;5.60;99.90;;;;;;5093265;28;20688;-67
2023/12/18 03:56:26;;;;;;;36.90;20.67;;;5.70;99.90;;;;;;5093665;28;20627;-68
2023/12/18 03:58:52;;;;;;;41.97;21.00;;;5.60;99.90;;;;;;5093501;28;20623;-67
2023/12/18 04:01:17;;;;;;;33.20;20.00;;;5.60;99.90;;;;;;5093477;28;20627;-67
2023/12/18 04:03:43;;;;;;;38.17;20.57;;;5.60;99.90;;;;;;5093190;28;20176;-68
2023/12/18 04:06:09;;;;;;;39.77;20.70;;;5.60;99.90;;;;;;5093254;28;20204;-67
2023/12/18 04:08:34;;;;;;;41.23;20.73;;;5.60;99.90;;;;;;5093269;28;20182;-67
2023/12/18 04:11:00;;;;;;;41.03;21.20;;;5.70;99.90;;;;;;5093401;28;20298;-68
2023/12/18 04:13:26;;;;;;;41.87;21.43;;;5.60;99.90;;;;;;5093271;28;20168;-68
2023/12/18 04:15:52;;;;;;;40.33;20.47;;;5.60;99.90;;;;;;5093012;28;20263;-69
2023/12/18 04:18:18;;;;;;;41.63;21.03;;;5.70;99.90;;;;;;5092678;28;20280;-67
2023/12/18 04:20:44;;;;;;;37.37;20.97;;;5.70;99.90;;;;;;5092810;28;20176;-68
2023/12/18 04:23:09;;;;;;;44.90;21.70;;;5.70;99.90;;;;;;5096279;28;20182;-68
2023/12/18 04:25:35;;;;;;;40.10;21.70;;;5.70;99.90;;;;;;5097525;28;20183;-67
2023/12/18 04:28:00;;;;;;;40.57;20.80;;;5.70;99.90;;;;;;5097313;28;20310;-68
2023/12/18 04:30:26;;;;;;;41.53;21.57;;;5.60;99.90;;;;;;5097184;28;20219;-68
2023/12/18 04:32:51;;;;;;;37.40;21.43;;;5.70;99.90;;;;;;5097016;28;20254;-67
2023/12/18 04:35:17;;;;;;;39.27;21.03;;;5.70;99.90;;;;;;5097014;28;20218;-67
2023/12/18 04:37:43;;;;;;;36.60;20.90;;;5.60;99.90;;;;;;5096612;28;20648;-67
2023/12/18 04:40:10;;;;;;;36.40;21.67;;;5.60;99.90;;;;;;5096952;28;20255;-68
2023/12/18 04:42:35;;;;;;;41.63;21.97;;;5.70;99.90;;;;;;5097027;28;20258;-68
2023/12/18 04:45:01;;;;;;;41.77;21.73;;;5.70;99.90;;;;;;5096740;28;20653;-67
2023/12/18 04:47:26;;;;;;;41.30;21.37;;;5.70;99.90;;;;;;5096480;28;20260;-67
2023/12/18 04:49:52;;;;;;;34.30;19.90;;;5.70;99.90;;;;;;5096726;28;20167;-67
2023/12/18 04:52:17;;;;;;;43.20;20.97;;;5.70;99.90;;;;;;5096308;28;20176;-69
2023/12/18 04:54:43;;;;;;;43.20;21.40;;;5.80;99.90;;;;;;5096793;28;20175;-68
2023/12/18 04:57:08;;;;;;;33.27;20.77;;;5.80;99.90;;;;;;5096386;28;20172;-69
2023/12/18 04:59:34;;;;;;;38.33;21.00;;;5.80;99.90;;;;;;5097061;28;20195;-69
2023/12/18 05:02:00;;;;;;;38.90;22.07;;;5.90;99.90;;;;;;5096182;28;20699;-69
2023/12/18 05:04:25;;;;;;;40.63;21.43;;;5.90;99.90;;;;;;5096571;28;20257;-68
2023/12/18 05:06:51;;;;;;;46.90;21.70;;;5.80;99.90;;;;;;5096240;28;20253;-68
2023/12/18 05:09:16;;;;;;;40.47;20.77;;;5.80;99.90;;;;;;5078098;28;20168;-67
2023/12/18 05:11:42;;;;;;;38.30;22.43;;;5.80;99.90;;;;;;5095778;28;20688;-68
2023/12/18 05:14:08;;;;;;;40.90;22.23;;;5.70;99.90;;;;;;5095996;28;20245;-68
2023/12/18 05:16:34;;;;;;;38.57;21.20;;;5.70;99.90;;;;;;5095804;28;20175;-68
2023/12/18 05:19:00;;;;;;;38.03;21.43;;;5.70;99.90;;;;;;5096060;28;20160;-68
2023/12/18 05:21:25;;;;;;;40.67;22.17;;;5.60;99.90;;;;;;5095887;28;20183;-68
2023/12/18 05:23:51;;;;;;;39.03;20.67;;;5.60;99.90;;;;;;5096041;28;20213;-68
2023/12/18 05:26:16;;;;;;;39.07;22.10;;;5.60;99.90;;;;;;5095990;28;20198;-68
2023/12/18 05:28:42;;;;;;;44.00;23.27;;;5.60;99.90;;;;;;5095847;28;20255;-68
2023/12/18 05:31:11;;;;;;;47.47;23.93;;;5.60;99.90;;;;;;5095337;28;20242;-68
2023/12/18 05:33:37;;;;;;;47.87;23.07;;;5.60;99.90;;;;;;5095427;28;20179;-68
2023/12/18 05:36:03;;;;;;;41.40;22.73;;;5.60;99.90;;;;;;5095441;28;20176;-68
2023/12/18 05:38:28;;;;;;;40.87;21.53;;;5.60;99.90;;;;;;5095643;28;20293;-68
2023/12/18 05:40:54;;;;;;;38.03;21.43;;;5.70;99.90;;;;;;5095687;28;20184;-68
2023/12/18 05:43:19;;;;;;;38.03;21.50;;;5.80;99.90;;;;;;5095796;28;20179;-68
2023/12/18 05:45:45;;;;;;;41.83;22.30;;;5.90;99.90;;;;;;5094855;28;20274;-68
2023/12/18 05:48:11;;;;;;;38.17;21.80;;;5.90;99.90;;;;;;5095681;28;20171;-68
2023/12/18 05:50:37;;;;;;;46.87;23.70;;;6.00;99.90;;;;;;5094977;28;20678;-68
2023/12/18 05:53:02;;;;;;;43.27;22.40;;;6.00;99.90;;;;;;5094933;28;20199;-67
2023/12/18 05:55:28;;;;;;;44.03;22.50;;;5.90;99.90;;;;;;5094973;28;20198;-69
2023/12/18 05:57:53;;;;;;;41.07;22.73;;;5.90;99.90;;;;;;5095117;28;20619;-69
2023/12/18 06:00:19;;;;;;;46.07;22.77;;;5.80;99.90;;;;;;5094983;28;20164;-68
2023/12/18 06:02:45;;;;;;;42.00;21.83;;;5.80;99.90;;;;;;5094631;28;20229;-69
2023/12/18 06:05:10;;;;;;;40.87;22.33;;;5.80;99.90;;;;;;5094478;28;20168;-68
2023/12/18 06:07:36;;;;;;;45.37;22.70;;;5.80;99.90;;;;;;5094812;28;20172;-69
2023/12/18 06:10:02;;;;;;;45.43;23.70;;;5.70;99.90;;;;;;5094530;28;20645;-69
2023/12/18 06:12:27;;;;;;;43.80;23.23;;;5.70;99.90;;;;;;5093922;28;20634;-67
2023/12/18 06:14:53;;;;;;;44.90;23.57;;;5.60;99.90;;;;;;5094279;28;20635;-69
2023/12/18 06:17:18;;;;;;;43.80;22.50;;;5.60;99.90;;;;;;5094445;28;20187;-68
2023/12/18 06:19:44;;;;;;;48.23;24.37;;;5.70;99.90;;;;;;5094450;28;20191;-69
2023/12/18 06:22:12;;;;;;;48.57;24.27;;;5.80;99.90;;;;;;5094724;28;20677;-68
2023/12/18 06:24:39;;;;;;;49.97;24.60;;;5.80;99.90;;;;;;5094279;28;20537;-68
2023/12/18 06:27:05;;;;;;;44.07;23.80;;;5.90;99.90;;;;;;5093787;28;20220;-68
2023/12/18 06:29:30;;;;;;;43.07;22.90;;;5.80;99.90;;;;;;5094179;28;20179;-68
2023/12/18 06:31:56;;;;;;;44.90;23.73;;;5.80;99.90;;;;;;5093791;28;20230;-68
2023/12/18 06:34:21;;;;;;;45.27;23.20;;;5.70;99.90;;;;;;5094219;28;20199;-68
2023/12/18 06:36:47;;;;;;;51.67;24.07;;;5.70;99.90;;;;;;5093464;28;20179;-69
2023/12/18 06:39:13;;;;;;;49.10;23.80;;;5.80;99.90;;;;;;5075135;28;20631;-68
2023/12/18 06:41:39;;;;;;;45.43;23.23;;;5.90;99.90;;;;;;5093696;28;20168;-68
2023/12/18 06:44:05;;;;;;;44.60;22.57;;;5.90;99.90;;;;;;5092766;28;20169;-67
2023/12/18 06:46:32;;;;;;;44.87;23.00;;;6.00;99.90;;;;;;5093896;28;20211;-69
2023/12/18 06:48:58;;;;;;;39.53;20.10;;;5.90;99.90;;;;;;5093098;28;20167;-69
2023/12/18 06:51:23;;;;;;;41.70;21.63;;;5.90;99.90;;;;;;5093600;28;20211;-69
2023/12/18 06:53:50;;;;;;;38.13;20.77;;;5.80;99.90;;;;;;5092896;28;20261;-69
2023/12/18 06:56:16;;;;;;;39.00;21.37;;;5.80;99.90;;;;;;5093269;28;20194;-68
2023/12/18 06:58:41;;;;;;;45.43;22.23;;;5.90;99.90;;;;;;5092876;28;20171;-69
2023/12/18 07:01:07;;;;;;;40.83;22.73;;;5.80;99.90;;;;;;5093378;28;20529;-69
2023/12/18 07:03:33;;;;;;;44.73;21.93;;;5.90;99.90;;;;;;5092401;28;20168;-69
2023/12/18 07:05:59;;;;;;;42.33;21.50;;;5.80;99.90;;;;;;5092155;28;20178;-68
2023/12/18 07:08:24;;;;;;;41.60;22.00;;;5.80;99.90;;;;;;5092457;28;20164;-69
2023/12/18 07:10:50;;;;;;;38.90;21.23;;;5.80;99.90;;;;;;5092559;28;20211;-69
2023/12/18 07:13:16;;;;;;;40.27;21.87;;;5.80;99.90;;;;;;5092105;28;20321;-70
2023/12/18 07:15:41;;;;;;;46.17;21.10;;;5.80;99.90;;;;;;5093097;28;20263;-68
2023/12/18 07:18:07;;;;;;;43.80;20.63;;;5.70;99.90;;;;;;5073840;28;20651;-69
2023/12/18 07:20:33;;;;;;;38.73;21.00;;;5.60;99.90;;;;;;5092466;28;20639;-69
2023/12/18 07:22:58;;;;;;;40.00;19.60;;;5.60;99.90;;;;;;5093175;28;20254;-68
2023/12/18 07:25:24;;;;;;;34.80;19.37;;;5.60;99.90;;;;;;5074492;28;20623;-68
2023/12/18 07:27:50;;;;;;;35.23;19.77;;;5.50;99.90;;;;;;5092332;28;20281;-68
2023/12/18 07:30:15;;;;;;;39.53;19.30;;;5.50;99.90;;;;;;5092081;28;20225;-68
2023/12/18 07:32:41;;;;;;;37.10;19.40;;;5.50;99.90;;;;;;5092362;28;20187;-68
2023/12/18 07:35:07;;;;;;;38.83;18.63;;;5.60;99.90;;;;;;5092339;28;20290;-69
2023/12/18 07:37:33;;;;;;;38.10;19.80;;;5.50;99.90;;;;;;5093418;28;20211;-69
2023/12/18 07:40:00;;;;;;;36.97;19.93;;;5.50;99.90;;;;;;5092148;28;20172;-68
2023/12/18 07:42:26;;;;;;;39.30;19.10;;;5.40;99.90;;;;;;5072988;28;20249;-69
2023/12/18 07:44:52;;;;;;;39.17;19.33;;;5.50;99.90;;;;;;5090500;28;20278;-68
2023/12/18 07:47:18;;;;;;;36.67;20.07;;;5.50;99.90;;;;;;5088764;28;20199;-68
2023/12/18 07:49:44;;;;;;;36.30;19.77;;;5.60;99.90;;;;;;5101660;28;20172;-70
2023/12/18 07:52:09;;;;;;;36.13;19.37;;;5.50;99.90;;;;;;5098408;28;20286;-67
2023/12/18 07:54:35;;;;;;;36.33;20.27;;;5.40;99.90;;;;;;5102448;28;20598;-69
2023/12/18 07:57:02;;;;;;;37.03;19.43;;;5.40;99.90;;;;;;5081820;28;20241;-67
2023/12/18 07:59:29;;;;;;;36.37;19.93;;;5.30;99.90;;;;;;5097612;28;20184;-68
2023/12/18 08:01:54;;;;;;;34.80;19.93;;;5.30;99.90;;;;;;5101831;28;20187;-67
2023/12/18 08:04:20;;;;;;;35.40;19.47;;;5.30;99.90;;;;;;5095813;28;20172;-68
2023/12/18 08:06:47;;;;;;;41.43;19.60;;;5.20;99.90;;;;;;5088681;28;20623;-67
2023/12/18 08:09:16;;;;;;;34.73;18.97;;;5.20;99.90;;;;;;5092859;28;20220;-68
2023/12/18 08:11:41;;;;;;;36.50;18.97;;;5.10;99.90;;;;;;5097007;28;20340;-71
2023/12/18 08:14:07;;;;;;;32.93;17.83;;;5.20;99.90;;;;;;5097296;28;20274;-68
2023/12/18 08:16:33;;;;;;;36.53;18.73;;;5.20;99.90;;;;;;5094145;28;20194;-69
2023/12/18 08:18:58;;;;;;;33.23;18.07;;;5.20;99.90;;;;;;5105809;28;20171;-68
2023/12/18 08:21:29;;;;;;;30.23;18.23;;;5.30;99.90;;;;;;5091629;28;20172;-67
2023/12/18 08:23:55;;;;;;;31.93;17.43;;;5.40;99.90;;;;;;5090932;28;20221;-69
2023/12/18 08:26:22;;;;;;;32.50;18.27;;;5.40;99.90;;;;;;5091668;28;20179;-68
2023/12/18 08:28:47;;;;;;;32.33;17.37;;;5.40;99.90;;;;;;5098873;28;20171;-69
2023/12/18 08:31:13;;;;;;;37.80;18.47;;;5.40;99.90;;;;;;5091900;28;20230;-69
2023/12/18 08:33:39;;;;;;;29.40;18.37;;;5.50;99.90;;;;;;5091979;28;20164;-70
2023/12/18 08:36:05;;;;;;;31.67;18.23;;;5.50;99.90;;;;;;5075982;28;20176;-69
2023/12/18 08:38:30;;;;;;;40.90;17.77;;;5.60;99.90;;;;;;5102488;28;20199;-69
2023/12/18 08:40:56;;;;;;;30.33;17.70;;;5.60;99.90;;;;;;5094028;28;20222;-69
2023/12/18 08:43:21;;;;;;;34.93;18.43;;;5.70;99.90;;;;;;5082404;28;20238;-70
2023/12/18 08:45:47;;;;;;;31.53;17.47;;;5.70;99.90;;;;;;5079610;28;20667;-68
2023/12/18 08:48:13;;;;;;;33.60;17.73;;;5.80;99.90;;;;;;5086787;28;20574;-69
2023/12/18 08:50:39;;;;;;;34.30;18.23;;;5.90;99.90;;;;;;5091793;28;20195;-69
2023/12/18 08:53:04;;;;;;;30.17;17.47;;;5.80;99.90;;;;;;5091556;28;20494;-69
2023/12/18 08:55:30;;;;;;;27.43;15.93;;;5.90;99.90;;;;;;5088754;28;20554;-66
2023/12/18 08:57:56;;;;;;;33.60;15.80;;;6.00;99.90;;;;;;5075997;28;20180;-68
2023/12/18 09:00:22;;;;;;;29.80;16.57;;;5.80;99.90;;;;;;5071727;28;21046;-68
2023/12/18 09:02:48;;;;;;;31.63;16.20;;;5.90;99.90;;;;;;5072102;28;20165;-68
2023/12/18 09:05:13;;;;;;;32.07;16.70;;;5.70;99.90;;;;;;5080538;28;20187;-69
2023/12/18 09:07:39;;;;;;;34.67;16.93;;;5.80;99.90;;;;;;5092146;28;20873;-68
2023/12/18 09:10:05;;;;;;;28.03;16.80;;;5.60;99.90;;;;;;5095277;28;20168;-67
2023/12/18 09:12:31;;;;;;;29.50;15.60;;;5.60;99.90;;;;;;5093981;28;20215;-68
2023/12/18 09:14:57;;;;;;;32.13;16.97;;;5.70;99.90;;;;;;5076904;28;20260;-68
2023/12/18 09:17:22;;;;;;;38.43;16.77;;;5.70;99.90;;;;;;5094748;28;20195;-68
2023/12/18 09:19:48;;;;;;;31.20;16.80;;;5.80;99.90;;;;;;5095335;28;20172;-67
2023/12/18 09:22:13;;;;;;;33.03;16.40;;;5.90;99.90;;;;;;5094055;28;20172;-69
2023/12/18 09:24:39;;;;;;;30.10;15.97;;;5.90;99.90;;;;;;5095373;28;20184;-68
2023/12/18 09:27:04;;;;;;;30.27;16.50;;;5.90;99.90;;;;;;5095196;28;20298;-67
2023/12/18 09:29:30;;;;;;;30.00;16.77;;;5.90;99.90;;;;;;5095743;28;20637;-68
2023/12/18 09:31:55;;;;;;;32.30;17.07;;;5.90;99.90;;;;;;5095369;28;20290;-68
2023/12/18 09:34:21;;;;;;;25.27;16.00;;;5.90;99.90;;;;;;5076153;28;20684;-67
2023/12/18 09:36:47;;;;;;;28.37;16.33;;;6.00;99.90;;;;;;5094660;28;20168;-68
2023/12/18 09:39:14;;;;;;;30.40;16.17;;;6.00;99.90;;;;;;5095106;28;20168;-68
2023/12/18 09:41:40;;;;;;;28.73;16.40;;;6.10;99.90;;;;;;5095243;28;20252;-69
2023/12/18 09:44:05;;;;;;;26.97;15.57;;;6.10;99.90;;;;;;5095216;28;20218;-68
2023/12/18 09:46:31;;;;;;;28.30;15.80;;;6.10;99.90;;;;;;5094905;28;20642;-68
2023/12/18 09:48:57;;;;;;;32.90;16.50;;;6.10;99.90;;;;;;5094689;28;20190;-68
2023/12/18 09:51:24;;;;;;;26.07;16.13;;;6.10;99.90;;;;;;5094728;28;20222;-69
2023/12/18 09:53:51;;;;;;;29.90;15.63;;;6.10;99.90;;;;;;5094677;28;20168;-69
2023/12/18 09:56:20;;;;;;;27.50;16.30;;;6.20;99.90;;;;;;5094628;28;20180;-67
2023/12/18 09:58:46;;;;;;;26.93;14.80;;;6.30;99.90;;;;;;5094172;28;20210;-68
2023/12/18 10:01:13;;;;;;;28.03;15.93;;;6.20;99.90;;;;;;5095201;28;20714;-68
2023/12/18 10:03:38;;;;;;;31.07;16.67;;;6.20;99.90;;;;;;5076436;28;20172;-69
2023/12/18 10:06:04;;;;;;;35.27;16.57;;;6.30;99.90;;;;;;5076431;28;20176;-68
2023/12/18 10:08:30;;;;;;;27.60;15.80;;;6.40;99.90;;;;;;5094490;28;20203;-68
2023/12/18 10:10:56;;;;;;;29.43;15.83;;;6.40;99.90;;;;;;5094589;28;20211;-69
2023/12/18 10:13:22;;;;;;;30.17;15.97;;;6.40;99.90;;;;;;5094186;28;20180;-68
2023/12/18 10:15:47;;;;;;;29.40;16.73;;;6.50;99.90;;;;;;5094831;28;20203;-68
2023/12/18 10:18:16;;;;;;;24.90;15.33;;;6.50;99.90;;;;;;5094044;28;20215;-69
2023/12/18 10:20:42;;;;;;;33.33;15.80;;;6.50;99.90;;;;;;5072298;28;20701;-69
2023/12/18 10:23:08;;;;;;;27.47;16.33;;;6.60;99.90;;;;;;5073986;28;20172;-70
2023/12/18 10:25:35;;;;;;;25.17;15.57;;;6.60;99.90;;;;;;5092797;28;20327;-68
2023/12/18 10:28:00;;;;;;;26.00;15.53;;;6.70;99.90;;;;;;5094197;28;20224;-68
2023/12/18 10:30:29;;;;;;;30.07;16.30;;;6.70;99.90;;;;;;5074782;28;20234;-69
2023/12/18 10:32:56;;;;;;;31.87;15.47;;;6.60;99.90;;;;;;5093811;28;20215;-68
2023/12/18 10:35:22;;;;;;;29.43;15.70;;;6.60;99.90;;;;;;5093441;28;20190;-71
2023/12/18 10:37:54;;;;;;;25.87;15.30;;;6.60;99.90;;;;;;5092687;28;20180;-70
2023/12/18 10:40:22;;;;;;;25.20;14.50;;;6.70;99.90;;;;;;5074574;28;20250;-71
2023/12/18 10:43:10;;;;;;;26.07;15.50;;;6.70;99.90;;;;;;5093791;28;20168;-70
2023/12/18 10:45:37;;;;;;;26.13;16.27;;;6.70;99.90;;;;;;5093610;28;20187;-70
2023/12/18 10:48:04;;;;;;;26.37;15.83;;;6.60;99.90;;;;;;5093959;28;20220;-71
2023/12/18 10:50:30;;;;;;;30.30;15.97;;;6.70;99.90;;;;;;5093034;28;20199;-70
2023/12/18 10:52:58;;;;;;;25.37;14.90;;;6.60;99.90;;;;;;5093777;28;20171;-71
2023/12/18 10:55:26;;;;;;;29.47;16.63;;;6.70;99.90;;;;;;5093657;28;20160;-69
2023/12/18 10:57:55;;;;;;;27.83;15.87;;;6.70;99.90;;;;;;5093529;28;20172;-70
2023/12/18 11:00:21;;;;;;;26.33;15.80;;;6.60;99.90;;;;;;5094189;28;20172;-69
2023/12/18 11:02:49;;;;;;;28.53;16.20;;;6.60;99.90;;;;;;5074329;28;20278;-70
2023/12/18 11:05:15;;;;;;;51.50;31.50;;;6.60;99.90;;;;;;5093256;28;20168;-70
2023/12/18 11:07:41;;;;;;;36.57;21.23;;;6.70;99.90;;;;;;5093771;28;20195;-70
2023/12/18 11:10:07;;;;;;;29.67;17.00;;;6.70;99.90;;;;;;5093317;28;20184;-70
2023/12/18 11:12:35;;;;;;;28.30;17.53;;;6.70;99.90;;;;;;5093055;28;20209;-70
2023/12/18 11:15:12;;;;;;;25.30;16.27;;;6.80;99.90;;;;;;5093755;28;20176;-71
2023/12/18 11:17:56;;;;;;;27.13;16.00;;;6.80;99.90;;;;;;5093084;28;20184;-70
2023/12/18 11:20:36;;;;;;;29.73;16.13;;;6.70;99.90;;;;;;5093333;28;20182;-70
2023/12/18 11:23:02;;;;;;;28.70;15.83;;;6.70;99.90;;;;;;5092980;28;20172;-69
2023/12/18 11:25:32;;;;;;;32.43;17.13;;;6.70;99.90;;;;;;5092718;28;20175;-69
2023/12/18 11:28:04;;;;;;;23.00;14.77;;;6.90;99.90;;;;;;5089208;28;20273;-69
2023/12/18 11:30:31;;;;;;;24.73;15.97;;;6.70;99.90;;;;;;5073902;28;20223;-69
2023/12/18 11:32:57;;;;;;;25.87;16.07;;;6.80;99.90;;;;;;5091605;28;20255;-69
2023/12/18 11:35:30;;;;;;;30.20;16.70;;;6.90;99.90;;;;;;5092348;28;20164;-70
2023/12/18 11:38:12;;;;;;;30.80;17.07;;;6.90;99.90;;;;;;5092615;28;20172;-69
2023/12/18 11:40:41;;;;;;;30.80;17.03;;;7.00;99.90;;;;;;5074151;28;20219;-68
2023/12/18 11:43:12;;;;;;;34.80;17.57;;;7.00;99.90;;;;;;5091998;28;20523;-68
2023/12/18 11:45:43;;;;;;;31.73;16.80;;;7.00;99.90;;;;;;5092511;28;20300;-70
2023/12/18 11:48:13;;;;;;;30.60;21.57;;;7.00;99.90;;;;;;5091120;28;20168;-69
2023/12/18 11:50:40;;;;;;;36.23;22.17;;;6.90;99.90;;;;;;5092182;28;20196;-69
2023/12/18 11:53:38;;;;;;;38.80;24.57;;;6.90;99.90;;;;;;5091741;28;20236;-69
2023/12/18 11:56:08;;;;;;;32.23;17.47;;;6.80;99.90;;;;;;5009633;28;20551;-69
2023/12/18 11:58:36;;;;;;;31.70;18.90;;;6.60;99.90;;;;;;5009259;28;20265;-70
2023/12/18 12:01:01;;;;;;;36.53;18.40;;;6.70;99.90;;;;;;4993411;28;20175;-69
2023/12/18 12:03:27;;;;;;;29.33;17.43;;;6.70;99.90;;;;;;5008955;28;20171;-70
2023/12/18 12:05:53;;;;;;;28.83;17.13;;;6.60;99.90;;;;;;5010451;28;20190;-69
2023/12/18 12:08:19;;;;;;;36.23;17.13;;;6.60;99.90;;;;;;5009350;28;20185;-69
2023/12/18 12:10:47;;;;;;;32.37;17.40;;;6.50;99.90;;;;;;5009295;28;20573;-70
2023/12/18 12:13:20;;;;;;;31.27;17.87;;;6.40;99.90;;;;;;5009733;28;20185;-69
2023/12/18 12:15:59;;;;;;;41.43;22.67;;;6.50;99.90;;;;;;5009543;28;20261;-71
2023/12/18 12:18:31;;;;;;;32.80;18.23;;;6.60;99.90;;;;;;5009519;28;20253;-71
2023/12/18 12:20:57;;;;;;;35.13;19.03;;;6.60;99.90;;;;;;5009982;28;20174;-70
2023/12/18 12:23:23;;;;;;;37.40;19.30;;;6.50;99.90;;;;;;5009512;28;20258;-69
2023/12/18 12:25:50;;;;;;;34.10;18.43;;;6.50;99.90;;;;;;5008869;28;20186;-70
2023/12/18 12:28:16;;;;;;;34.47;18.90;;;6.60;99.90;;;;;;4991039;28;20747;-70
2023/12/18 12:30:43;;;;;;;33.80;17.70;;;6.60;99.90;;;;;;4995370;28;20669;-70